ADDS METAR Data INFO
IDs: Format: Raw Decoded Include TAF

Data at: 0506 UTC 18 Feb 2018

KFAT 180453Z 00000KT 9SM CLR 14/00 A3004 RMK AO2 SLP170 T01390000
KFAT 180353Z 00000KT 10SM CLR 16/00 A3004 RMK AO2 SLP171 T01610000
KFAT 180253Z 28003KT 10SM CLR 17/M02 A3005 RMK AO2 SLP174 T01721017 55004
KFAT 180153Z 28004KT 10SM CLR 19/M02 A3004 RMK AO2 SLP172 T01891022
KFAT 180053Z 30003KT 10SM CLR 21/M02 A3004 RMK AO2 SLP172 T02111022
KFAT 172353Z 26003KT 10SM CLR 21/M02 A3006 RMK AO2 SLP177 T02111022 10217 20139 56024
KFAT 172253Z 00000KT 9SM CLR 21/M02 A3007 RMK AO2 SLP181 T02111022
KFAT 172153Z 13004KT 9SM CLR 20/M02 A3009 RMK AO2 SLP189 T02001017
KFAT 172053Z 00000KT 9SM CLR 19/M02 A3013 RMK AO2 SLP201 T01941017 58022
KFAT 171953Z 17005KT 9SM CLR 18/M01 A3016 RMK AO2 SLP211 T01831006
KFAT 171853Z 15005KT 9SM CLR 17/00 A3017 RMK AO2 SLP217 T01670000
KFAT 171753Z 13006KT 8SM CLR 14/01 A3019 RMK AO2 SLP223 T01390006 10139 20050 51005
KFAT 171653Z 14007KT 9SM CLR 11/01 A3019 RMK AO2 SLP222 T01060011
KFAT 171553Z 05003KT 8SM CLR 08/01 A3019 RMK AO2 SLP224 T00780006
KFAT 171453Z 07003KT 9SM FEW200 05/00 A3018 RMK AO2 SLP219 T00500000 55000
KFAT 171353Z 08004KT 10SM SCT200 05/00 A3017 RMK AO2 SLP216 T00500000
KFAT 171253Z 00000KT 10SM SCT200 06/M01 A3018 RMK AO2 SLP217 T00611006
KFAT 171153Z 00000KT 10SM SCT200 07/M01 A3018 RMK AO2 SLP218 T00671006 10111 20061 58007
KFAT 171053Z 04004KT 10SM FEW200 07/M01 A3019 RMK AO2 SLP220 T00721006
KFAT 170953Z 00000KT 10SM SCT200 07/M01 A3020 RMK AO2 SLP224 T00721006
KFAT 170853Z 08003KT 10SM SCT200 08/M01 A3020 RMK AO2 SLP226 T00781006 50001
KFAT 170753Z 00000KT 10SM FEW200 09/M01 A3020 RMK AO2 SLP226 T00891006 402000022
KFAT 170653Z 00000KT 10SM CLR 09/M01 A3020 RMK AO2 SLP225 T00941011
KFAT 170553Z 00000KT 10SM CLR 11/M01 A3020 RMK AO2 SLP224 T01061011 10194 20106 53014
KFAT 170453Z 00000KT 10SM CLR 12/M02 A3018 RMK AO2 SLP220 T01221022
KFAT 170353Z 00000KT 10SM FEW200 14/M02 A3017 RMK AO2 SLP216 T01441022
KFAT 170253Z 00000KT 10SM FEW200 15/M02 A3016 RMK AO2 SLP212 T01501017 53004
KFAT 170153Z 28004KT 10SM FEW200 17/M04 A3014 RMK AO2 SLP206 T01721044
KFAT 170053Z 30004KT 10SM CLR 18/M04 A3013 RMK AO2 SLP203 MTNS PTLY OBSC DSNT N-E-SE T01831044
KFAT 162353Z 32008KT 10SM CLR 19/M05 A3015 RMK AO2 SLP207 MTNS PTLY OBSC DSNT N-E-SE T01941050 10200 20122 56014
KFAT 162253Z 29006KT 10SM CLR 19/M07 A3015 RMK AO2 SLP209 T01941067
KFAT 162153Z 28006KT 10SM CLR 18/M07 A3016 RMK AO2 SLP213 T01831072
KFAT 162053Z 30003KT 10SM CLR 18/M01 A3019 RMK AO2 SLP221 T01831011 58037
KFAT 161953Z 32004KT 10SM CLR 16/M01 A3024 RMK AO2 SLP238 T01611006
KFAT 161853Z 16003KT 10SM CLR 14/02 A3027 RMK AO2 SLP250 T01440022
KFAT 161753Z 11003KT 9SM CLR 12/02 A3030 RMK AO2 SLP258 T01220022 10122 20022 50009